Time;durP1;ratioP1;P1;durP2;ratioP2;P2;SDS_P1;SDS_P2;PMS_P1;PMS_P2;Temp;Humidity;BMP_temperature;BMP_pressure;BME280_temperature;BME280_humidity;BME280_pressure;Samples;Min_cycle;Max_cycle;Signal;HPM_P1;HPM_P2
2022/04/15 00:00:40;;;;;;;6.53;4.13;;;10.70;63.80;;;;;;5010275;28;20264;-77
2022/04/15 00:03:06;;;;;;;6.17;3.53;;;10.70;64.00;;;;;;5010512;28;20176;-76
2022/04/15 00:05:40;;;;;;;3.27;3.07;;;10.60;64.10;;;;;;5008178;28;20199;-77
2022/04/15 00:08:13;;;;;;;6.10;3.70;;;10.60;64.20;;;;;;5010215;28;20191;-77
2022/04/15 00:10:45;;;;;;;3.50;3.20;;;10.70;64.00;;;;;;5011669;28;20237;-77
2022/04/15 00:13:12;;;;;;;5.13;3.53;;;10.70;64.90;;;;;;5009482;28;20263;-76
2022/04/15 00:15:41;;;;;;;4.13;3.73;;;10.60;64.40;;;;;;5011470;28;20220;-76
2022/04/15 00:18:07;;;;;;;4.50;2.93;;;10.60;64.20;;;;;;5010315;28;20195;-76
2022/04/15 00:20:32;;;;;;;6.57;3.00;;;10.60;64.60;;;;;;5007036;28;20245;-77
2022/04/15 00:22:58;;;;;;;3.20;2.97;;;10.60;64.70;;;;;;5013086;28;20208;-77
2022/04/15 00:25:25;;;;;;;6.37;3.23;;;10.50;64.80;;;;;;5007929;28;20200;-75
2022/04/15 00:27:51;;;;;;;4.53;2.83;;;10.50;64.50;;;;;;5008460;28;20200;-76
2022/04/15 00:30:17;;;;;;;10.03;2.63;;;10.50;64.60;;;;;;5008006;28;20181;-76
2022/04/15 00:32:43;;;;;;;3.37;2.40;;;10.40;64.70;;;;;;5011929;28;20196;-76
2022/04/15 00:35:10;;;;;;;3.20;2.93;;;10.40;64.90;;;;;;5011737;28;20267;-76
2022/04/15 00:37:36;;;;;;;2.27;2.00;;;10.40;64.30;;;;;;5013357;28;20232;-77
2022/04/15 00:40:06;;;;;;;2.20;2.10;;;10.40;64.10;;;;;;5006219;28;20272;-77
2022/04/15 00:42:32;;;;;;;2.50;2.40;;;10.40;64.00;;;;;;5013286;28;20242;-77
2022/04/15 00:44:59;;;;;;;2.00;1.90;;;10.30;64.80;;;;;;5012888;28;20611;-77
2022/04/15 00:47:24;;;;;;;3.00;2.50;;;10.30;65.70;;;;;;5006377;28;20187;-76
2022/04/15 00:49:50;;;;;;;5.80;2.43;;;10.20;64.90;;;;;;5010169;28;20182;-77
2022/04/15 00:52:20;;;;;;;2.23;2.13;;;10.20;64.90;;;;;;5005414;28;20670;-76
2022/04/15 00:54:51;;;;;;;2.10;2.00;;;10.20;65.00;;;;;;5008710;28;20191;-77
2022/04/15 00:57:22;;;;;;;2.30;2.10;;;10.10;65.10;;;;;;5011870;28;20681;-76
2022/04/15 00:59:51;;;;;;;1.83;1.73;;;10.10;65.60;;;;;;5006367;28;20208;-76
2022/04/15 01:02:18;;;;;;;2.67;2.27;;;10.00;65.90;;;;;;5004786;28;20213;-78
2022/04/15 01:04:44;;;;;;;4.63;2.63;;;10.00;66.50;;;;;;5006832;28;20298;-77
2022/04/15 01:07:14;;;;;;;2.10;1.90;;;9.90;66.40;;;;;;5008009;28;20911;-78
2022/04/15 01:09:43;;;;;;;2.10;1.90;;;9.80;66.50;;;;;;5012052;28;20219;-76
2022/04/15 01:12:10;;;;;;;1.97;1.90;;;9.80;66.40;;;;;;5007764;28;20216;-76
2022/04/15 01:14:38;;;;;;;2.47;1.90;;;9.70;66.30;;;;;;5014259;28;20184;-76
2022/04/15 01:17:04;;;;;;;2.20;2.10;;;9.60;66.10;;;;;;5014128;28;20220;-76
2022/04/15 01:19:30;;;;;;;2.40;2.07;;;9.60;66.80;;;;;;5013218;28;20589;-78
2022/04/15 01:21:59;;;;;;;2.13;2.03;;;9.60;65.90;;;;;;5016302;28;20622;-78
2022/04/15 01:24:25;;;;;;;2.23;2.13;;;9.50;65.30;;;;;;5010977;28;20184;-78
2022/04/15 01:26:51;;;;;;;4.53;2.27;;;9.50;66.60;;;;;;5014035;28;20655;-77
2022/04/15 01:29:17;;;;;;;2.00;1.90;;;9.60;66.90;;;;;;5012671;28;20606;-76
2022/04/15 01:31:43;;;;;;;5.57;2.43;;;9.60;66.70;;;;;;5015884;28;20188;-76
2022/04/15 01:34:08;;;;;;;2.87;2.00;;;9.60;67.20;;;;;;5014194;28;20707;-77
2022/04/15 01:36:34;;;;;;;2.10;1.90;;;9.50;67.50;;;;;;5011391;28;20209;-76
2022/04/15 01:39:00;;;;;;;1.70;1.70;;;9.50;67.10;;;;;;5010904;28;20218;-77
2022/04/15 01:41:26;;;;;;;2.07;1.97;;;9.40;66.50;;;;;;5016335;28;20216;-77
2022/04/15 01:43:52;;;;;;;4.13;2.67;;;9.40;67.50;;;;;;5015737;28;20676;-77
2022/04/15 01:46:18;;;;;;;2.77;1.87;;;9.40;66.90;;;;;;5012559;28;20197;-77
2022/04/15 01:48:43;;;;;;;1.93;1.83;;;9.40;66.80;;;;;;5014221;28;20234;-77
2022/04/15 01:51:09;;;;;;;1.87;1.77;;;9.40;66.60;;;;;;5014148;28;20267;-77
2022/04/15 01:53:34;;;;;;;1.83;1.73;;;9.30;66.00;;;;;;5011707;28;20177;-77
2022/04/15 01:56:00;;;;;;;3.90;1.80;;;9.30;65.90;;;;;;5014333;28;20243;-77
2022/04/15 01:58:26;;;;;;;2.90;1.93;;;9.30;67.30;;;;;;5008931;28;20179;-77
2022/04/15 02:00:52;;;;;;;3.33;1.90;;;9.30;66.90;;;;;;5014464;28;20188;-77
2022/04/15 02:03:17;;;;;;;3.30;1.90;;;9.30;66.80;;;;;;5011705;28;20176;-77
2022/04/15 02:05:43;;;;;;;2.47;2.37;;;9.30;67.00;;;;;;5009183;28;20200;-77
2022/04/15 02:08:10;;;;;;;2.67;2.13;;;9.30;67.00;;;;;;5012159;28;20237;-77
2022/04/15 02:10:35;;;;;;;2.93;2.03;;;9.20;67.60;;;;;;5009998;28;20181;-77
2022/04/15 02:13:01;;;;;;;1.80;1.70;;;9.20;68.00;;;;;;5009471;28;20211;-77
2022/04/15 02:15:27;;;;;;;1.43;1.43;;;9.30;68.00;;;;;;5013193;28;20181;-77
2022/04/15 02:17:54;;;;;;;2.03;1.93;;;9.20;66.30;;;;;;5012105;28;20304;-77
2022/04/15 02:20:19;;;;;;;2.73;1.50;;;9.20;67.20;;;;;;5015935;28;20173;-77
2022/04/15 02:22:45;;;;;;;1.57;1.47;;;9.10;67.70;;;;;;5008399;28;20185;-77
2022/04/15 02:25:11;;;;;;;1.73;1.63;;;9.10;67.10;;;;;;5013053;28;20192;-76
2022/04/15 02:27:36;;;;;;;1.83;1.70;;;9.10;67.40;;;;;;5011939;28;20321;-77
2022/04/15 02:30:03;;;;;;;1.73;1.63;;;9.10;67.60;;;;;;5011580;28;20177;-77
2022/04/15 02:32:30;;;;;;;2.30;2.10;;;9.10;67.60;;;;;;5007647;28;20655;-77
2022/04/15 02:34:56;;;;;;;2.10;2.00;;;9.00;66.60;;;;;;5014738;28;20319;-77
2022/04/15 02:37:21;;;;;;;2.63;1.80;;;9.00;67.30;;;;;;5015010;28;20706;-77
2022/04/15 02:39:49;;;;;;;1.40;1.40;;;9.00;67.30;;;;;;5012641;28;20185;-77
2022/04/15 02:42:15;;;;;;;3.53;2.30;;;8.90;67.30;;;;;;5013799;28;20670;-77
2022/04/15 02:44:40;;;;;;;3.23;2.40;;;8.90;68.00;;;;;;5012260;28;20185;-77
2022/04/15 02:47:07;;;;;;;2.17;2.07;;;8.90;68.10;;;;;;5012031;28;20192;-77
2022/04/15 02:49:33;;;;;;;4.50;2.60;;;8.90;68.40;;;;;;5012441;28;20188;-77
2022/04/15 02:51:59;;;;;;;3.43;3.17;;;8.90;68.20;;;;;;5010083;28;20185;-77
2022/04/15 02:54:25;;;;;;;3.33;2.40;;;8.90;68.50;;;;;;5011941;28;20872;-76
2022/04/15 02:56:51;;;;;;;7.27;3.00;;;8.80;68.90;;;;;;5011555;28;20209;-78
2022/04/15 02:59:16;;;;;;;3.00;2.80;;;8.90;69.00;;;;;;5014370;28;20212;-77
2022/04/15 03:01:44;;;;;;;6.80;2.50;;;8.80;68.90;;;;;;5011367;28;20187;-76
2022/04/15 03:04:10;;;;;;;3.33;3.10;;;8.80;69.30;;;;;;5010012;28;20195;-77
2022/04/15 03:06:35;;;;;;;4.03;3.67;;;8.80;69.10;;;;;;5011902;28;20187;-77
2022/04/15 03:09:02;;;;;;;5.87;3.60;;;8.80;69.50;;;;;;5010066;28;20912;-77
2022/04/15 03:11:27;;;;;;;3.33;3.13;;;8.80;69.40;;;;;;5009602;28;20804;-77
2022/04/15 03:13:53;;;;;;;3.13;2.90;;;8.80;69.40;;;;;;5013285;28;20267;-77
2022/04/15 03:16:19;;;;;;;3.37;3.07;;;8.80;69.70;;;;;;5013763;28;20216;-77
2022/04/15 03:18:44;;;;;;;3.17;2.87;;;8.70;69.80;;;;;;5014250;28;20176;-78
2022/04/15 03:21:10;;;;;;;3.40;2.73;;;8.70;69.70;;;;;;5016392;28;20640;-78
2022/04/15 03:23:36;;;;;;;2.60;2.40;;;8.70;69.50;;;;;;5015025;28;20176;-78
2022/04/15 03:26:02;;;;;;;4.97;2.20;;;8.60;69.20;;;;;;5009791;28;20253;-78
2022/04/15 03:28:27;;;;;;;2.53;2.27;;;8.60;69.60;;;;;;5009691;28;20181;-77
2022/04/15 03:30:53;;;;;;;2.63;2.00;;;8.50;69.00;;;;;;5009126;28;20212;-77
2022/04/15 03:33:19;;;;;;;2.43;2.10;;;8.50;68.80;;;;;;5009629;28;20187;-77
2022/04/15 03:35:44;;;;;;;2.33;2.20;;;8.40;69.40;;;;;;5008633;28;20199;-78
2022/04/15 03:38:10;;;;;;;1.50;1.50;;;8.40;69.40;;;;;;5012171;28;20181;-77
2022/04/15 03:40:36;;;;;;;3.57;2.07;;;8.40;69.80;;;;;;5009170;28;20189;-78
2022/04/15 03:43:04;;;;;;;3.20;2.23;;;8.40;69.90;;;;;;5010311;28;20212;-76
2022/04/15 03:45:31;;;;;;;2.00;1.30;;;8.40;70.00;;;;;;5007828;28;20185;-78
2022/04/15 03:47:58;;;;;;;2.40;2.20;;;8.40;69.80;;;;;;5010937;28;20193;-78
2022/04/15 03:50:24;;;;;;;1.87;1.80;;;8.40;70.10;;;;;;5008535;28;20191;-77
2022/04/15 03:52:50;;;;;;;2.40;2.07;;;8.30;70.30;;;;;;5012563;28;20301;-77
2022/04/15 03:55:20;;;;;;;2.33;2.07;;;8.30;70.30;;;;;;5007889;28;20279;-77
2022/04/15 03:57:47;;;;;;;4.60;2.07;;;8.30;70.50;;;;;;5012205;28;20223;-77
2022/04/15 04:00:22;;;;;;;2.30;2.20;;;8.40;70.50;;;;;;5012326;28;20260;-77
2022/04/15 04:02:49;;;;;;;2.43;2.23;;;8.40;70.50;;;;;;5008728;28;20184;-77
2022/04/15 04:05:15;;;;;;;2.33;2.23;;;8.30;71.00;;;;;;5008155;28;20192;-78
2022/04/15 04:07:42;;;;;;;2.17;2.07;;;8.30;70.60;;;;;;5005407;28;20184;-77
2022/04/15 04:10:08;;;;;;;2.23;2.07;;;8.30;70.80;;;;;;5005069;28;20186;-77
2022/04/15 04:12:34;;;;;;;2.20;2.10;;;8.20;70.50;;;;;;5012297;28;20172;-76
2022/04/15 04:15:01;;;;;;;3.40;2.27;;;8.20;70.10;;;;;;5009670;28;20185;-77
2022/04/15 04:17:27;;;;;;;2.70;2.50;;;8.20;70.20;;;;;;5005050;28;20219;-77
2022/04/15 04:19:53;;;;;;;2.20;2.03;;;8.20;70.30;;;;;;5006009;28;20189;-77
2022/04/15 04:22:19;;;;;;;3.23;2.07;;;8.20;70.60;;;;;;5009206;28;20195;-77
2022/04/15 04:24:45;;;;;;;3.47;2.80;;;8.20;70.90;;;;;;5004480;28;20276;-76
2022/04/15 04:27:11;;;;;;;5.33;3.20;;;8.20;70.90;;;;;;5010687;28;20787;-76
2022/04/15 04:29:36;;;;;;;5.63;4.53;;;8.20;71.00;;;;;;5009038;28;20699;-76
2022/04/15 04:32:02;;;;;;;8.97;4.30;;;8.20;71.20;;;;;;5010735;28;20189;-77
2022/04/15 04:34:28;;;;;;;3.50;3.20;;;8.20;71.00;;;;;;5011171;28;20253;-77
2022/04/15 04:36:54;;;;;;;5.40;3.33;;;8.20;71.10;;;;;;5007719;28;20291;-78
2022/04/15 04:39:19;;;;;;;5.90;3.10;;;8.30;71.10;;;;;;5007742;28;20205;-78
2022/04/15 04:41:45;;;;;;;3.73;3.43;;;8.30;71.30;;;;;;5008924;28;20181;-78
2022/04/15 04:44:11;;;;;;;3.63;2.87;;;8.30;71.20;;;;;;5004666;28;20189;-77
2022/04/15 04:46:38;;;;;;;3.47;3.20;;;8.30;71.00;;;;;;5007060;28;20187;-75
2022/04/15 04:49:04;;;;;;;3.70;2.53;;;8.30;71.40;;;;;;5005691;28;20176;-76
2022/04/15 04:51:30;;;;;;;3.33;3.03;;;8.30;71.30;;;;;;5012130;28;20188;-77
2022/04/15 04:53:55;;;;;;;2.33;2.23;;;8.30;71.40;;;;;;5008391;28;20269;-72
2022/04/15 04:56:21;;;;;;;2.97;2.77;;;8.30;71.40;;;;;;5010051;28;20215;-75
2022/04/15 04:58:47;;;;;;;7.53;3.03;;;8.30;71.50;;;;;;5007615;28;20235;-75
2022/04/15 05:01:12;;;;;;;3.80;3.40;;;8.30;71.60;;;;;;5008396;28;20189;-74
2022/04/15 05:03:38;;;;;;;6.67;3.43;;;8.40;71.60;;;;;;5008935;28;20213;-76
2022/04/15 05:06:04;;;;;;;6.73;3.83;;;8.40;71.40;;;;;;5009487;28;20200;-76
2022/04/15 05:08:29;;;;;;;4.30;3.37;;;8.40;71.40;;;;;;5011096;28;20185;-77
2022/04/15 05:10:55;;;;;;;4.50;3.63;;;8.40;71.10;;;;;;5011360;28;20246;-75
2022/04/15 05:13:20;;;;;;;6.23;3.13;;;8.40;71.60;;;;;;5010826;28;20268;-75
2022/04/15 05:15:46;;;;;;;3.07;2.67;;;8.50;71.70;;;;;;5008650;28;20189;-76
2022/04/15 05:18:12;;;;;;;4.77;3.73;;;8.50;71.60;;;;;;5010550;28;20795;-76
2022/04/15 05:20:38;;;;;;;3.67;3.33;;;8.60;72.80;;;;;;5011709;28;20181;-74
2022/04/15 05:23:04;;;;;;;6.43;3.47;;;8.60;72.70;;;;;;5012332;28;20185;-74
2022/04/15 05:25:29;;;;;;;6.50;3.57;;;8.60;72.10;;;;;;5013864;28;20851;-75
2022/04/15 05:27:58;;;;;;;3.40;3.20;;;8.70;72.30;;;;;;5015992;28;20181;-74
2022/04/15 05:30:24;;;;;;;6.07;3.70;;;8.70;73.20;;;;;;5011002;28;20185;-74
2022/04/15 05:32:50;;;;;;;10.13;4.43;;;8.70;72.40;;;;;;5023857;28;20571;-74
2022/04/15 05:35:15;;;;;;;3.93;3.47;;;8.80;72.90;;;;;;5009585;28;20185;-74
2022/04/15 05:37:41;;;;;;;6.57;3.87;;;8.90;72.20;;;;;;5012271;28;20277;-73
2022/04/15 05:40:08;;;;;;;5.50;3.63;;;8.90;72.50;;;;;;5015576;28;20180;-71
2022/04/15 05:42:33;;;;;;;6.33;4.20;;;9.00;72.00;;;;;;5012017;28;20217;-74
2022/04/15 05:44:59;;;;;;;4.20;3.70;;;9.10;71.90;;;;;;5012628;28;20610;-74
2022/04/15 05:47:25;;;;;;;5.00;3.93;;;9.10;71.60;;;;;;5011666;28;20186;-73
2022/04/15 05:49:50;;;;;;;6.93;4.00;;;9.20;71.30;;;;;;5012451;28;20213;-74
2022/04/15 05:52:16;;;;;;;4.23;3.63;;;9.30;70.80;;;;;;5015420;28;20670;-74
2022/04/15 05:54:42;;;;;;;6.43;3.60;;;9.30;70.30;;;;;;5016330;28;20181;-73
2022/04/15 05:57:09;;;;;;;4.50;3.67;;;9.40;70.10;;;;;;5013429;28;20737;-74
2022/04/15 05:59:35;;;;;;;3.60;3.30;;;9.50;70.10;;;;;;5010997;28;20181;-74
2022/04/15 06:02:00;;;;;;;7.00;3.90;;;9.50;69.80;;;;;;5009826;28;20747;-75
2022/04/15 06:04:26;;;;;;;4.33;3.93;;;9.60;69.70;;;;;;5013527;28;20211;-74
2022/04/15 06:06:52;;;;;;;7.90;4.17;;;9.70;69.40;;;;;;5008989;28;20188;-74
2022/04/15 06:09:17;;;;;;;5.60;4.23;;;9.80;69.30;;;;;;5010230;28;20185;-74
2022/04/15 06:11:43;;;;;;;5.77;4.77;;;9.90;69.10;;;;;;5014561;28;20181;-75
2022/04/15 06:14:09;;;;;;;8.17;3.43;;;10.00;68.90;;;;;;5014802;28;20176;-74
2022/04/15 06:16:37;;;;;;;5.80;4.37;;;10.00;68.80;;;;;;5013094;28;20208;-74
2022/04/15 06:19:04;;;;;;;7.80;4.50;;;10.10;68.50;;;;;;5015955;28;20187;-73
2022/04/15 06:21:31;;;;;;;5.30;4.03;;;10.20;68.10;;;;;;5010293;28;20213;-74
2022/04/15 06:23:57;;;;;;;4.80;4.00;;;10.20;67.90;;;;;;5013667;28;20227;-74
2022/04/15 06:26:23;;;;;;;6.67;3.70;;;10.30;67.60;;;;;;5014272;28;20662;-74
2022/04/15 06:28:48;;;;;;;5.03;4.63;;;10.40;67.50;;;;;;5010802;28;20192;-74
2022/04/15 06:31:14;;;;;;;8.60;5.20;;;10.50;67.50;;;;;;5013584;28;20180;-75
2022/04/15 06:33:41;;;;;;;10.57;4.37;;;10.60;67.50;;;;;;5009708;28;20189;-74
2022/04/15 06:36:07;;;;;;;10.50;4.53;;;10.60;67.50;;;;;;5013331;28;20211;-74
2022/04/15 06:38:32;;;;;;;7.93;5.40;;;10.70;67.30;;;;;;5013261;28;20712;-74
2022/04/15 06:40:58;;;;;;;9.70;5.73;;;10.80;67.30;;;;;;5009687;28;20185;-74
2022/04/15 06:43:24;;;;;;;8.70;5.63;;;10.90;67.00;;;;;;5013015;28;20560;-74
2022/04/15 06:45:50;;;;;;;5.13;4.77;;;10.90;66.90;;;;;;5012214;28;20267;-74
2022/04/15 06:48:15;;;;;;;6.20;5.17;;;11.00;66.80;;;;;;5012624;28;20192;-74
2022/04/15 06:50:41;;;;;;;6.57;5.50;;;11.10;66.80;;;;;;5014501;28;20218;-74
2022/04/15 06:53:07;;;;;;;12.27;5.17;;;11.20;66.70;;;;;;5010849;28;20230;-73
2022/04/15 06:55:33;;;;;;;7.57;5.30;;;11.20;66.30;;;;;;5010687;28;20177;-74
2022/04/15 06:57:59;;;;;;;11.10;4.57;;;11.30;66.10;;;;;;5013588;28;20224;-73
2022/04/15 07:00:25;;;;;;;9.33;4.50;;;11.40;65.70;;;;;;5008584;28;20242;-74
2022/04/15 07:02:51;;;;;;;9.33;5.07;;;11.50;65.80;;;;;;5008861;28;20813;-73
2022/04/15 07:05:17;;;;;;;6.10;4.70;;;11.60;65.40;;;;;;5009996;28;20206;-74
2022/04/15 07:07:42;;;;;;;6.43;4.83;;;11.70;65.10;;;;;;5014726;28;20797;-73
2022/04/15 07:10:10;;;;;;;5.40;4.90;;;11.70;65.00;;;;;;5015261;28;20185;-74
2022/04/15 07:12:37;;;;;;;6.28;5.30;;;11.80;64.70;;;;;;5013037;28;20185;-73
2022/04/15 07:15:03;;;;;;;7.73;6.40;;;11.90;64.60;;;;;;5012518;28;20185;-75
2022/04/15 07:17:29;;;;;;;5.13;4.60;;;12.00;64.50;;;;;;5007971;28;20308;-74
2022/04/15 07:19:55;;;;;;;5.75;5.15;;;12.10;64.60;;;;;;5008387;28;20184;-75
2022/04/15 07:22:21;;;;;;;6.40;4.95;;;12.20;64.00;;;;;;5011771;28;20267;-74
2022/04/15 07:24:48;;;;;;;9.85;5.13;;;12.20;64.20;;;;;;5009609;28;20730;-73
2022/04/15 07:27:14;;;;;;;8.48;4.53;;;12.30;63.90;;;;;;5013785;28;20227;-74
2022/04/15 07:29:40;;;;;;;8.48;5.10;;;12.40;63.80;;;;;;5013875;28;20205;-74
2022/04/15 07:32:06;;;;;;;8.65;5.53;;;12.50;63.10;;;;;;5008482;28;20196;-75
2022/04/15 07:34:32;;;;;;;5.38;4.95;;;12.60;63.20;;;;;;5008202;28;20208;-73
2022/04/15 07:36:59;;;;;;;7.63;4.55;;;12.70;63.50;;;;;;5012772;28;20248;-75
2022/04/15 07:39:25;;;;;;;6.60;4.57;;;12.80;63.30;;;;;;5007535;28;20196;-73
2022/04/15 07:41:51;;;;;;;13.57;5.60;;;12.90;62.70;;;;;;5011408;28;20719;-74
2022/04/15 07:44:18;;;;;;;4.25;3.95;;;13.00;61.90;;;;;;5010671;28;20180;-75
2022/04/15 07:46:45;;;;;;;7.03;4.47;;;13.20;61.40;;;;;;5012749;28;20189;-75
2022/04/15 07:49:11;;;;;;;5.82;3.75;;;13.20;61.00;;;;;;5014009;28;20400;-75
2022/04/15 07:51:37;;;;;;;3.90;3.60;;;13.30;61.00;;;;;;5012340;28;20717;-74
2022/04/15 07:54:05;;;;;;;7.35;3.72;;;13.40;61.10;;;;;;5017026;28;20183;-75
2022/04/15 07:56:32;;;;;;;5.90;3.63;;;13.50;60.60;;;;;;5012321;28;20215;-75
2022/04/15 07:58:58;;;;;;;3.47;3.25;;;13.60;61.10;;;;;;5011169;28;20195;-74
2022/04/15 08:01:27;;;;;;;3.60;3.35;;;13.70;60.70;;;;;;5010277;28;20667;-74
2022/04/15 08:03:54;;;;;;;5.40;4.18;;;13.80;60.70;;;;;;5013387;28;20184;-74
2022/04/15 08:06:20;;;;;;;4.75;4.28;;;13.90;60.50;;;;;;5011492;28;20191;-75
2022/04/15 08:08:48;;;;;;;5.03;4.40;;;14.00;59.50;;;;;;5008675;28;20185;-74
2022/04/15 08:11:14;;;;;;;6.65;4.30;;;14.20;59.90;;;;;;5008823;28;20190;-75
2022/04/15 08:13:39;;;;;;;10.40;3.97;;;14.30;60.30;;;;;;5015846;28;20267;-75
2022/04/15 08:16:06;;;;;;;4.85;3.67;;;14.40;59.40;;;;;;5011096;28;20209;-74
2022/04/15 08:18:32;;;;;;;6.70;4.28;;;14.60;59.00;;;;;;5008618;28;20271;-74
2022/04/15 08:20:57;;;;;;;4.63;4.32;;;14.70;58.20;;;;;;5009011;28;20268;-74
2022/04/15 08:23:23;;;;;;;4.03;3.60;;;14.80;58.90;;;;;;5013591;28;20595;-74
2022/04/15 08:25:49;;;;;;;4.07;3.67;;;14.90;59.30;;;;;;5014160;28;20322;-74
2022/04/15 08:28:15;;;;;;;4.88;4.15;;;15.10;58.20;;;;;;5016169;28;20730;-74
2022/04/15 08:30:41;;;;;;;4.43;3.95;;;15.30;58.00;;;;;;5011892;28;20181;-74
2022/04/15 08:33:07;;;;;;;4.35;3.90;;;15.40;57.60;;;;;;5012227;28;20189;-75
2022/04/15 08:35:37;;;;;;;5.72;4.47;;;15.50;57.40;;;;;;5015208;28;20260;-75
2022/04/15 08:38:03;;;;;;;4.50;4.10;;;15.70;57.90;;;;;;5015888;28;20216;-74
2022/04/15 08:40:34;;;;;;;8.23;5.13;;;15.80;58.00;;;;;;5020802;28;20188;-75
2022/04/15 08:43:03;;;;;;;4.95;4.45;;;16.00;56.20;;;;;;5012111;28;20208;-74
2022/04/15 08:45:30;;;;;;;8.20;4.68;;;16.20;56.90;;;;;;5014822;28;20195;-74
2022/04/15 08:47:59;;;;;;;4.35;4.05;;;16.40;55.70;;;;;;5011687;28;20220;-74
2022/04/15 08:50:26;;;;;;;5.13;4.55;;;16.50;55.20;;;;;;5014133;28;20736;-75
2022/04/15 08:52:56;;;;;;;4.25;3.85;;;16.70;55.10;;;;;;5043825;28;20640;-74
2022/04/15 08:55:22;;;;;;;4.35;3.97;;;16.90;55.80;;;;;;5014332;28;20192;-75
2022/04/15 08:57:49;;;;;;;4.47;4.07;;;17.10;56.30;;;;;;5013088;28;20777;-74
2022/04/15 09:00:15;;;;;;;6.18;3.83;;;17.20;55.40;;;;;;5013151;28;20310;-73
2022/04/15 09:02:41;;;;;;;4.35;4.05;;;17.50;54.40;;;;;;5014467;28;20184;-75
2022/04/15 09:05:08;;;;;;;6.32;3.85;;;17.80;53.80;;;;;;5014482;28;20690;-74
2022/04/15 09:07:36;;;;;;;3.60;3.40;;;18.20;53.20;;;;;;5012610;28;20267;-74
2022/04/15 09:10:03;;;;;;;7.43;4.07;;;18.60;52.90;;;;;;5017444;28;20250;-74
2022/04/15 09:12:30;;;;;;;13.52;3.75;;;19.20;52.00;;;;;;5012049;28;20557;-74
2022/04/15 09:15:08;;;;;;;3.28;3.13;;;19.90;51.40;;;;;;5012655;28;20255;-76
2022/04/15 09:17:35;;;;;;;3.65;3.45;;;20.60;50.50;;;;;;5010143;28;20502;-74
2022/04/15 09:20:03;;;;;;;6.13;3.58;;;21.50;48.70;;;;;;5013637;28;20238;-75
2022/04/15 09:22:29;;;;;;;3.10;2.78;;;22.30;48.90;;;;;;5013069;28;20181;-74
2022/04/15 09:24:55;;;;;;;3.38;2.85;;;23.10;49.10;;;;;;5014603;28;20184;-75
2022/04/15 09:27:23;;;;;;;4.38;3.05;;;23.90;46.50;;;;;;5009302;28;20873;-74
2022/04/15 09:29:52;;;;;;;2.75;2.53;;;24.60;45.40;;;;;;5010634;28;20598;-74
2022/04/15 09:32:18;;;;;;;3.15;2.33;;;25.40;45.70;;;;;;5013170;28;20714;-74
2022/04/15 09:34:59;;;;;;;6.18;2.80;;;26.00;45.00;;;;;;5013193;28;20290;-73
2022/04/15 09:37:30;;;;;;;2.47;2.38;;;26.60;44.40;;;;;;5012511;28;20215;-73
2022/04/15 09:40:09;;;;;;;2.75;2.13;;;27.10;42.90;;;;;;5009502;28;20563;-74
2022/04/15 09:42:39;;;;;;;4.47;2.53;;;27.40;42.50;;;;;;5008850;28;20760;-74
2022/04/15 09:45:29;;;;;;;2.17;2.08;;;27.80;43.30;;;;;;5016212;28;20180;-74
2022/04/15 09:48:12;;;;;;;2.78;2.50;;;28.20;43.00;;;;;;5011325;28;20564;-73
2022/04/15 09:50:43;;;;;;;2.22;2.17;;;28.80;41.90;;;;;;5010050;28;20642;-75
2022/04/15 09:53:13;;;;;;;2.17;1.98;;;29.20;42.30;;;;;;5013452;28;20188;-73
2022/04/15 09:55:40;;;;;;;2.25;2.00;;;29.70;41.50;;;;;;5014154;28;20558;-74
2022/04/15 09:58:17;;;;;;;3.13;1.80;;;30.10;41.00;;;;;;5012044;28;20324;-73
2022/04/15 10:00:48;;;;;;;4.72;1.95;;;30.50;41.20;;;;;;5016098;28;20188;-73
2022/04/15 10:03:22;;;;;;;3.28;1.92;;;30.70;40.60;;;;;;5013043;28;20204;-73
2022/04/15 10:05:53;;;;;;;2.83;2.13;;;31.20;38.80;;;;;;5013485;28;20928;-74
2022/04/15 10:08:23;;;;;;;3.40;1.85;;;31.30;40.30;;;;;;5013295;28;20221;-76
2022/04/15 10:10:51;;;;;;;1.80;1.70;;;31.40;39.30;;;;;;5010773;28;20267;-75
2022/04/15 10:13:17;;;;;;;2.75;1.50;;;31.50;38.30;;;;;;5018217;28;20245;-75
2022/04/15 10:15:45;;;;;;;1.90;1.80;;;31.60;40.30;;;;;;5009152;28;20298;-75
2022/04/15 10:18:11;;;;;;;2.00;1.90;;;31.90;39.10;;;;;;5010134;28;20216;-74
2022/04/15 10:20:42;;;;;;;1.77;1.75;;;32.20;39.50;;;;;;5013081;28;20196;-75
2022/04/15 10:23:11;;;;;;;4.13;1.90;;;32.60;38.70;;;;;;5012515;28;20185;-74
2022/04/15 10:25:38;;;;;;;3.35;2.25;;;33.10;39.20;;;;;;5009521;28;20181;-75
2022/04/15 10:28:11;;;;;;;1.60;1.60;;;33.50;37.20;;;;;;5012555;28;20185;-75
2022/04/15 10:30:38;;;;;;;2.05;1.80;;;33.80;38.90;;;;;;5008832;28;20746;-74
2022/04/15 10:33:04;;;;;;;5.47;1.85;;;33.90;36.60;;;;;;5008722;28;20189;-75
2022/04/15 10:35:32;;;;;;;2.50;1.83;;;34.10;37.40;;;;;;5011419;28;20195;-75
2022/04/15 10:38:13;;;;;;;2.05;1.95;;;34.50;38.10;;;;;;5010525;28;20597;-75
2022/04/15 10:40:49;;;;;;;2.63;1.63;;;35.00;37.00;;;;;;5010211;28;20180;-75
2022/04/15 10:43:27;;;;;;;1.98;1.73;;;35.40;37.00;;;;;;5012761;28;20192;-75
2022/04/15 10:46:12;;;;;;;1.52;1.52;;;35.70;36.90;;;;;;5013397;28;20222;-75
2022/04/15 10:48:38;;;;;;;2.50;2.08;;;36.00;35.00;;;;;;5012746;28;20188;-74
2022/04/15 10:51:25;;;;;;;1.92;1.73;;;36.10;37.20;;;;;;5014734;28;20203;-75
2022/04/15 10:53:52;;;;;;;2.50;2.40;;;36.30;36.30;;;;;;5010819;28;20195;-75
2022/04/15 10:56:22;;;;;;;1.85;1.85;;;36.50;36.60;;;;;;5012134;28;20263;-75
2022/04/15 11:02:01;;;;;;;4.38;2.22;;;36.90;36.50;;;;;;5011503;28;20712;-75
2022/04/15 11:04:34;;;;;;;2.50;2.10;;;37.10;36.30;;;;;;5012214;28;20196;-75
2022/04/15 11:07:34;;;;;;;2.45;2.30;;;37.40;35.20;;;;;;5008390;28;20682;-75
2022/04/15 11:10:00;;;;;;;2.60;2.50;;;37.60;33.90;;;;;;5005960;28;20212;-74
2022/04/15 11:12:42;;;;;;;1.77;1.77;;;37.40;34.30;;;;;;5026281;28;20188;-74
2022/04/15 11:15:09;;;;;;;2.15;2.05;;;37.30;33.50;;;;;;5009380;28;20192;-74
2022/04/15 11:17:47;;;;;;;2.97;2.58;;;37.10;35.60;;;;;;5009328;28;20608;-74
2022/04/15 11:20:13;;;;;;;1.95;1.85;;;36.90;34.00;;;;;;5007654;28;20191;-74
2022/04/15 11:22:43;;;;;;;2.15;2.05;;;36.80;34.90;;;;;;4990092;28;20299;-74
2022/04/15 11:25:11;;;;;;;2.75;2.55;;;36.90;34.80;;;;;;5009948;28;20295;-74
2022/04/15 11:27:39;;;;;;;10.13;2.75;;;37.20;34.70;;;;;;5009180;28;20203;-74
2022/04/15 11:30:16;;;;;;;5.28;2.65;;;37.50;35.50;;;;;;5010227;28;20186;-74
2022/04/15 11:33:02;;;;;;;2.08;2.08;;;37.80;33.60;;;;;;5008978;28;20192;-74
2022/04/15 11:35:30;;;;;;;2.58;2.47;;;38.00;32.80;;;;;;5003409;28;20208;-74
2022/04/15 11:38:12;;;;;;;2.28;2.22;;;38.20;34.00;;;;;;5008269;28;20232;-74
2022/04/15 11:40:43;;;;;;;2.42;2.00;;;38.40;33.10;;;;;;5010039;28;20299;-74
2022/04/15 11:43:10;;;;;;;2.30;2.20;;;38.60;33.20;;;;;;5003048;28;20198;-74
2022/04/15 11:45:37;;;;;;;2.47;2.22;;;38.50;33.30;;;;;;5001563;28;20188;-75
2022/04/15 11:48:20;;;;;;;2.03;1.77;;;38.70;31.60;;;;;;5010120;28;20207;-75
2022/04/15 11:50:47;;;;;;;2.78;1.45;;;38.70;31.60;;;;;;5009233;28;20201;-75
2022/04/15 11:53:13;;;;;;;2.17;1.77;;;38.60;32.30;;;;;;5005743;28;20498;-75
2022/04/15 11:55:58;;;;;;;1.80;1.70;;;38.40;32.40;;;;;;5009811;28;20184;-75
2022/04/15 11:58:25;;;;;;;3.28;1.80;;;38.10;32.60;;;;;;5009119;28;20196;-75
2022/04/15 12:00:56;;;;;;;2.17;1.85;;;37.60;32.50;;;;;;5003608;28;20176;-74
2022/04/15 12:03:22;;;;;;;3.55;2.15;;;37.60;34.40;;;;;;5004984;28;20179;-74
2022/04/15 12:05:49;;;;;;;2.00;1.90;;;37.80;32.70;;;;;;5010226;28;20191;-74
2022/04/15 12:08:16;;;;;;;4.82;1.80;;;37.90;33.80;;;;;;5010599;28;20467;-75
2022/04/15 12:10:44;;;;;;;1.60;1.60;;;38.30;32.60;;;;;;5008709;28;20176;-75
2022/04/15 12:13:10;;;;;;;2.13;2.03;;;;;;;;;;5005667;28;20572;-75
2022/04/15 12:15:36;;;;;;;1.45;1.35;;;39.00;31.40;;;;;;5010304;28;20184;-75
2022/04/15 12:18:03;;;;;;;1.90;1.80;;;39.00;32.00;;;;;;5009799;28;20239;-75
2022/04/15 12:20:30;;;;;;;4.00;1.80;;;39.30;31.40;;;;;;5011504;28;20647;-75
2022/04/15 12:23:00;;;;;;;2.63;2.03;;;39.30;31.90;;;;;;5009151;28;20426;-75
2022/04/15 12:25:26;;;;;;;1.60;1.60;;;39.60;30.20;;;;;;5012305;28;20222;-75
2022/04/15 12:27:55;;;;;;;1.80;1.70;;;39.60;30.70;;;;;;5004455;28;20730;-75
2022/04/15 12:30:39;;;;;;;1.60;1.60;;;39.60;30.70;;;;;;5009748;28;20294;-75
2022/04/15 12:33:13;;;;;;;1.58;1.50;;;39.60;30.00;;;;;;5008141;28;20180;-75
2022/04/15 12:36:02;;;;;;;1.95;1.85;;;39.60;31.00;;;;;;5009784;28;20221;-74
2022/04/15 12:39:02;;;;;;;1.60;1.60;;;39.20;30.30;;;;;;5014402;28;20184;-74
2022/04/15 12:41:43;;;;;;;1.80;1.70;;;38.40;32.10;;;;;;5005936;28;20707;-74
2022/04/15 12:44:16;;;;;;;1.73;1.70;;;38.40;32.00;;;;;;5007573;28;20194;-75
2022/04/15 12:46:47;;;;;;;2.03;1.92;;;38.50;33.00;;;;;;5007669;28;20239;-75
2022/04/15 12:49:22;;;;;;;2.75;1.25;;;38.60;32.60;;;;;;5004486;28;20707;-75
2022/04/15 12:51:48;;;;;;;1.50;1.45;;;38.90;30.70;;;;;;5006098;28;20184;-75
2022/04/15 12:54:14;;;;;;;1.25;1.25;;;;;;;;;;5003162;28;20293;-76
2022/04/15 12:56:53;;;;;;;1.42;1.33;;;38.50;32.20;;;;;;5005601;28;20180;-76